Time;durP1;ratioP1;P1;durP2;ratioP2;P2;SDS_P1;SDS_P2;PMS_P1;PMS_P2;Temp;Humidity;BMP_temperature;BMP_pressure;BME280_temperature;BME280_humidity;BME280_pressure;Samples;Min_cycle;Max_cycle;Signal;HPM_P1;HPM_P2
2021/12/10 00:00:42;;;;;;;3.55;2.13;;;22.20;45.60;;;;;;5036846;28;20214;-71
2021/12/10 00:03:15;;;;;;;3.78;2.40;;;22.20;45.60;;;;;;5020464;28;20195;-70
2021/12/10 00:06:07;;;;;;;2.90;2.30;;;22.20;45.60;;;;;;5036491;28;20186;-71
2021/12/10 00:08:36;;;;;;;2.40;2.10;;;22.20;45.60;;;;;;5019831;28;20273;-70
2021/12/10 00:11:10;;;;;;;3.40;2.35;;;22.10;45.50;;;;;;5054239;28;20182;-71
2021/12/10 00:13:36;;;;;;;3.35;2.30;;;22.10;45.50;;;;;;5054153;28;20213;-71
2021/12/10 00:16:04;;;;;;;2.67;1.80;;;22.20;45.60;;;;;;5036373;28;20291;-71
2021/12/10 00:18:34;;;;;;;2.67;2.13;;;22.20;45.50;;;;;;5035596;28;20195;-71
2021/12/10 00:21:04;;;;;;;2.88;2.00;;;22.20;45.60;;;;;;5036549;28;20213;-70
2021/12/10 00:23:32;;;;;;;3.10;1.98;;;22.10;46.10;;;;;;5019639;28;20193;-71
2021/12/10 00:26:01;;;;;;;2.30;1.90;;;22.20;45.60;;;;;;5036427;28;20182;-70
2021/12/10 00:28:38;;;;;;;3.30;2.00;;;22.20;45.60;;;;;;5036127;28;20236;-71
2021/12/10 00:31:32;;;;;;;3.60;2.10;;;22.20;45.50;;;;;;5019904;28;20186;-70
2021/12/10 00:34:31;;;;;;;2.30;1.92;;;22.20;45.40;;;;;;5053769;28;20717;-70
2021/12/10 00:37:06;;;;;;;2.78;2.20;;;22.10;45.30;;;;;;5019837;28;20183;-70
2021/12/10 00:39:49;;;;;;;2.50;1.98;;;22.20;45.40;;;;;;5035695;28;20174;-70
2021/12/10 00:42:19;;;;;;;2.70;1.90;;;22.20;45.40;;;;;;5035859;28;20214;-70
2021/12/10 00:44:45;;;;;;;2.83;1.77;;;22.10;45.40;;;;;;5019143;28;20214;-70
2021/12/10 00:47:12;;;;;;;2.38;1.63;;;22.20;45.40;;;;;;5035958;28;20186;-71
2021/12/10 00:49:38;;;;;;;2.17;1.88;;;22.20;45.40;;;;;;5035738;28;20265;-71
2021/12/10 00:52:08;;;;;;;2.42;1.95;;;22.20;45.40;;;;;;5052382;28;20232;-70
2021/12/10 00:54:34;;;;;;;2.45;1.75;;;22.10;45.30;;;;;;5035913;28;20206;-71
2021/12/10 00:57:01;;;;;;;2.20;2.00;;;22.20;45.30;;;;;;5035676;28;20188;-70
2021/12/10 00:59:27;;;;;;;2.85;1.70;;;22.20;45.30;;;;;;5052055;28;20193;-70
2021/12/10 01:01:54;;;;;;;2.85;1.92;;;22.10;45.20;;;;;;5035433;28;20210;-70
2021/12/10 01:04:29;;;;;;;2.35;2.00;;;22.10;45.20;;;;;;5053079;28;20213;-70
2021/12/10 01:06:58;;;;;;;2.90;2.10;;;22.10;45.20;;;;;;5036013;28;20224;-71
2021/12/10 01:09:31;;;;;;;2.88;1.90;;;22.10;45.30;;;;;;5051704;28;20191;-71
2021/12/10 01:12:11;;;;;;;3.13;2.10;;;22.10;45.30;;;;;;5035620;28;20193;-70
2021/12/10 01:15:00;;;;;;;2.67;2.00;;;22.10;45.30;;;;;;5035053;28;20597;-70
2021/12/10 01:26:10;;;;;;;2.97;1.90;;;22.10;45.20;;;;;;5052924;28;20163;-71
2021/12/10 01:28:42;;;;;;;3.35;2.10;;;22.10;45.20;;;;;;5018849;28;20187;-70
2021/12/10 01:31:09;;;;;;;1.70;1.60;;;22.20;45.30;;;;;;5018057;28;20277;-71
2021/12/10 01:33:34;;;;;;;2.00;1.80;;;22.10;45.20;;;;;;5034912;28;20206;-71
2021/12/10 01:36:06;;;;;;;1.98;1.75;;;22.10;45.30;;;;;;5035022;28;20344;-70
2021/12/10 01:38:33;;;;;;;1.92;1.52;;;22.10;45.30;;;;;;5018153;28;20182;-71
2021/12/10 01:41:00;;;;;;;1.83;1.65;;;22.20;45.30;;;;;;5035023;28;20206;-70
2021/12/10 01:43:32;;;;;;;1.55;1.30;;;22.20;45.30;;;;;;5034394;28;20221;-71
2021/12/10 01:46:11;;;;;;;2.22;1.80;;;22.20;45.30;;;;;;5035081;28;20264;-70
2021/12/10 01:48:46;;;;;;;2.65;1.95;;;22.20;45.30;;;;;;5018451;28;20189;-70
2021/12/10 01:51:17;;;;;;;3.53;2.10;;;22.20;45.20;;;;;;5034642;28;20633;-70
2021/12/10 01:53:47;;;;;;;2.42;1.90;;;22.10;45.20;;;;;;5034579;28;20202;-70
2021/12/10 01:56:22;;;;;;;1.70;1.58;;;22.10;45.20;;;;;;5034772;28;20652;-70
2021/12/10 01:58:50;;;;;;;1.88;1.55;;;22.10;45.20;;;;;;5034613;28;20178;-70
2021/12/10 02:01:24;;;;;;;2.20;1.65;;;22.10;45.20;;;;;;5034507;28;20256;-71
2021/12/10 02:03:53;;;;;;;2.45;1.60;;;22.10;45.20;;;;;;5034442;28;20205;-70
2021/12/10 02:06:21;;;;;;;2.38;1.45;;;22.10;45.30;;;;;;5034420;28;20225;-71
2021/12/10 02:08:47;;;;;;;2.55;1.77;;;22.10;45.30;;;;;;5052147;28;20273;-70
2021/12/10 02:11:14;;;;;;;2.50;1.73;;;22.10;45.20;;;;;;5052180;28;20274;-70
2021/12/10 02:13:40;;;;;;;2.17;1.58;;;22.10;45.20;;;;;;5052045;28;20206;-70
2021/12/10 02:16:07;;;;;;;2.88;1.75;;;22.10;45.20;;;;;;5052096;28;20201;-71
2021/12/10 02:18:34;;;;;;;2.13;1.60;;;22.10;45.20;;;;;;5034417;28;20224;-71
2021/12/10 02:21:02;;;;;;;3.10;1.88;;;22.10;45.30;;;;;;5017736;28;20210;-70
2021/12/10 02:23:36;;;;;;;2.50;2.08;;;22.10;45.20;;;;;;5016342;28;20191;-71
2021/12/10 02:26:09;;;;;;;1.77;1.63;;;22.10;45.20;;;;;;5014662;28;20229;-70
2021/12/10 02:28:36;;;;;;;1.98;1.77;;;22.10;45.00;;;;;;5014489;28;20255;-70
2021/12/10 02:31:04;;;;;;;2.28;1.88;;;22.10;45.20;;;;;;4998180;28;20225;-71
2021/12/10 02:33:30;;;;;;;3.00;2.00;;;22.10;45.10;;;;;;4998065;28;20187;-71
2021/12/10 02:35:56;;;;;;;1.70;1.60;;;22.10;45.10;;;;;;5014627;28;20176;-71
2021/12/10 02:38:23;;;;;;;2.05;1.40;;;22.10;45.20;;;;;;4998092;28;20188;-71
2021/12/10 02:40:52;;;;;;;2.00;1.35;;;22.10;45.20;;;;;;4997569;28;20246;-71
2021/12/10 02:43:22;;;;;;;1.65;1.40;;;22.10;45.10;;;;;;5017544;28;20187;-71
2021/12/10 02:45:55;;;;;;;2.15;1.50;;;22.10;45.20;;;;;;5036097;28;20168;-71
2021/12/10 02:48:23;;;;;;;1.48;1.38;;;22.10;45.20;;;;;;5036096;28;20172;-70
2021/12/10 02:50:50;;;;;;;1.60;1.30;;;22.10;45.10;;;;;;5018304;28;20171;-70
2021/12/10 02:53:22;;;;;;;2.20;1.60;;;22.10;45.10;;;;;;5001681;28;20191;-71
2021/12/10 02:55:49;;;;;;;2.33;1.50;;;22.10;45.10;;;;;;5018301;28;20205;-71
2021/12/10 02:58:15;;;;;;;3.05;1.45;;;22.10;45.10;;;;;;5017729;28;20199;-70
2021/12/10 03:00:48;;;;;;;2.08;1.67;;;22.10;45.00;;;;;;5001458;28;20211;-70
2021/12/10 03:03:14;;;;;;;1.50;1.40;;;22.10;45.00;;;;;;5001860;28;20192;-70
2021/12/10 03:05:40;;;;;;;1.73;1.50;;;22.10;44.90;;;;;;5017798;28;20195;-70
2021/12/10 03:08:07;;;;;;;1.75;1.45;;;22.10;44.90;;;;;;5017704;28;20190;-72
2021/12/10 03:10:35;;;;;;;1.60;1.50;;;22.10;44.90;;;;;;5001474;28;20179;-71
2021/12/10 03:13:02;;;;;;;2.47;1.88;;;22.10;44.90;;;;;;5001411;28;20187;-70
2021/12/10 03:15:30;;;;;;;1.95;1.60;;;22.10;44.90;;;;;;5006474;28;20199;-70
2021/12/10 03:17:57;;;;;;;1.65;1.50;;;22.10;44.90;;;;;;5017750;28;20178;-70
2021/12/10 03:20:28;;;;;;;2.45;1.77;;;22.10;44.90;;;;;;5001147;28;20179;-70
2021/12/10 03:22:55;;;;;;;1.40;1.30;;;22.10;44.90;;;;;;5025053;28;20206;-70
2021/12/10 03:25:21;;;;;;;2.53;1.63;;;22.10;45.00;;;;;;5001266;28;20211;-70
2021/12/10 03:27:47;;;;;;;2.03;1.52;;;22.10;44.90;;;;;;5017215;28;20194;-70
2021/12/10 03:30:22;;;;;;;1.77;1.40;;;22.10;44.90;;;;;;5017650;28;20665;-70
2021/12/10 03:32:49;;;;;;;1.30;1.10;;;22.10;44.90;;;;;;5017604;28;20553;-71
2021/12/10 03:35:27;;;;;;;2.22;1.20;;;22.10;44.90;;;;;;5000868;28;20206;-70
2021/12/10 03:37:55;;;;;;;2.00;1.42;;;22.10;45.00;;;;;;5017278;28;20209;-70
2021/12/10 03:40:21;;;;;;;1.75;1.40;;;22.10;44.90;;;;;;5017150;28;20555;-70
2021/12/10 03:42:49;;;;;;;1.85;1.60;;;22.10;44.90;;;;;;5000949;28;20193;-70
2021/12/10 03:45:17;;;;;;;1.63;1.50;;;22.10;44.90;;;;;;5000644;28;20225;-70
2021/12/10 03:47:45;;;;;;;1.70;1.50;;;22.10;45.00;;;;;;5034667;28;20210;-70
2021/12/10 03:50:19;;;;;;;1.85;1.65;;;22.10;44.90;;;;;;5017513;28;20206;-71
2021/12/10 03:52:45;;;;;;;1.92;1.67;;;22.10;44.90;;;;;;5016989;28;20171;-70
2021/12/10 03:55:11;;;;;;;1.88;1.65;;;22.10;44.90;;;;;;4999797;28;20210;-72
2021/12/10 03:57:37;;;;;;;2.00;1.35;;;22.10;44.90;;;;;;5016812;28;20667;-70
2021/12/10 04:00:05;;;;;;;1.73;1.45;;;22.10;45.00;;;;;;5034634;28;20240;-70
2021/12/10 04:02:31;;;;;;;1.52;1.42;;;22.10;44.90;;;;;;5016953;28;20199;-68
2021/12/10 04:04:57;;;;;;;1.58;1.13;;;22.10;44.90;;;;;;5000294;28;20210;-70
2021/12/10 04:07:26;;;;;;;1.88;1.55;;;22.10;45.00;;;;;;5016771;28;20562;-70
2021/12/10 04:09:52;;;;;;;1.33;1.23;;;22.10;44.90;;;;;;5016766;28;20176;-70
2021/12/10 04:12:20;;;;;;;1.55;1.40;;;22.10;44.90;;;;;;5000626;28;20189;-70
2021/12/10 04:14:48;;;;;;;2.10;1.30;;;22.10;44.90;;;;;;5016554;28;20220;-70
2021/12/10 04:17:17;;;;;;;1.30;1.20;;;22.10;44.90;;;;;;5016505;28;20325;-70
2021/12/10 04:19:45;;;;;;;1.88;1.40;;;22.10;44.90;;;;;;5016259;28;20274;-70
2021/12/10 04:22:14;;;;;;;1.55;1.45;;;22.10;44.90;;;;;;5034269;28;20300;-70
2021/12/10 04:24:41;;;;;;;1.60;1.20;;;22.10;44.90;;;;;;5016416;28;20282;-71
2021/12/10 04:27:11;;;;;;;1.92;1.30;;;22.10;44.90;;;;;;5016361;28;20261;-71
2021/12/10 04:29:38;;;;;;;1.92;1.50;;;22.10;44.90;;;;;;5016205;28;20190;-70
2021/12/10 04:32:07;;;;;;;1.60;1.50;;;22.10;44.80;;;;;;5016212;28;20644;-71
2021/12/10 04:34:32;;;;;;;1.63;1.52;;;22.10;44.90;;;;;;5016505;28;20207;-71
2021/12/10 04:37:04;;;;;;;1.95;1.80;;;22.10;44.80;;;;;;5000017;28;20183;-70
2021/12/10 04:39:30;;;;;;;1.90;1.80;;;22.10;44.80;;;;;;5015890;28;20203;-70
2021/12/10 04:41:57;;;;;;;1.95;1.73;;;22.10;44.80;;;;;;5033682;28;20390;-71
2021/12/10 04:44:23;;;;;;;1.75;1.45;;;22.10;44.90;;;;;;5015868;28;20215;-70
2021/12/10 04:46:49;;;;;;;1.65;1.52;;;22.10;44.80;;;;;;5016034;28;20182;-70
2021/12/10 04:49:17;;;;;;;1.65;1.48;;;22.10;44.80;;;;;;5015796;28;20572;-70
2021/12/10 04:51:53;;;;;;;1.60;1.40;;;22.10;44.80;;;;;;5016095;28;20179;-71
2021/12/10 04:54:24;;;;;;;1.50;1.30;;;22.00;44.80;;;;;;5033524;28;20278;-70
2021/12/10 04:56:55;;;;;;;2.08;1.60;;;22.10;44.90;;;;;;5016296;28;20191;-70
2021/12/10 04:59:22;;;;;;;1.52;1.42;;;22.10;44.90;;;;;;5015668;28;20183;-71
2021/12/10 05:01:53;;;;;;;2.08;1.13;;;22.10;45.50;;;;;;5015718;28;20214;-70
2021/12/10 05:04:19;;;;;;;2.08;1.85;;;22.10;44.90;;;;;;4999567;28;20218;-70
2021/12/10 05:06:44;;;;;;;1.73;1.63;;;22.10;44.90;;;;;;5015750;28;20183;-70
2021/12/10 05:09:13;;;;;;;3.15;1.98;;;22.10;44.80;;;;;;5015386;28;20643;-70
2021/12/10 05:11:39;;;;;;;2.30;2.10;;;22.10;44.80;;;;;;5032034;28;20246;-71
2021/12/10 05:14:06;;;;;;;1.95;1.83;;;22.00;44.60;;;;;;5033080;28;20574;-71
2021/12/10 05:16:37;;;;;;;2.25;1.90;;;22.00;44.70;;;;;;5015425;28;20218;-71
2021/12/10 05:19:05;;;;;;;2.20;2.00;;;22.00;44.70;;;;;;5015246;28;20666;-70
2021/12/10 05:21:34;;;;;;;2.05;1.77;;;22.00;44.70;;;;;;5032970;28;20218;-71
2021/12/10 05:24:03;;;;;;;2.22;2.05;;;22.00;44.70;;;;;;4999160;28;20208;-71
2021/12/10 05:26:30;;;;;;;2.28;1.77;;;22.10;44.80;;;;;;5015435;28;20222;-70
2021/12/10 05:28:56;;;;;;;1.83;1.60;;;22.10;44.80;;;;;;5032747;28;20190;-70
2021/12/10 05:31:23;;;;;;;2.03;1.67;;;22.00;44.70;;;;;;4999047;28;20578;-68
2021/12/10 05:33:49;;;;;;;2.35;1.52;;;22.00;44.70;;;;;;4998741;28;20223;-70
2021/12/10 05:36:15;;;;;;;1.85;1.75;;;22.00;44.70;;;;;;5004775;28;20194;-70
2021/12/10 05:38:41;;;;;;;1.60;1.50;;;22.10;44.80;;;;;;5046106;28;20191;-71
2021/12/10 05:41:10;;;;;;;1.63;1.50;;;22.00;44.70;;;;;;4998572;28;20264;-70
2021/12/10 05:43:41;;;;;;;1.70;1.60;;;22.10;44.80;;;;;;4998727;28;20211;-67
2021/12/10 05:46:09;;;;;;;1.63;1.52;;;22.00;44.70;;;;;;5015006;28;20175;-70
2021/12/10 05:51:09;;;;;;;2.38;2.00;;;22.00;44.70;;;;;;5069571;28;20210;-72
2021/12/10 05:53:35;;;;;;;2.10;1.90;;;22.10;44.70;;;;;;5071267;28;20181;-71
2021/12/10 05:56:02;;;;;;;2.60;2.40;;;22.00;44.60;;;;;;5071207;28;20186;-72
2021/12/10 05:58:28;;;;;;;2.40;2.20;;;22.00;44.50;;;;;;5054294;28;20196;-72
2021/12/10 06:01:02;;;;;;;2.92;2.70;;;22.00;44.60;;;;;;5073301;28;20589;-71
2021/12/10 06:03:31;;;;;;;2.67;2.47;;;22.00;44.60;;;;;;5091451;28;20222;-71
2021/12/10 06:05:57;;;;;;;2.78;2.58;;;22.00;44.50;;;;;;5074684;28;20177;-71
2021/12/10 06:08:24;;;;;;;2.17;1.98;;;22.00;44.60;;;;;;5074223;28;20200;-71
2021/12/10 06:10:52;;;;;;;2.30;2.10;;;22.00;44.40;;;;;;5092491;28;20258;-72
2021/12/10 06:13:18;;;;;;;2.20;2.00;;;22.00;44.40;;;;;;5091083;28;20173;-72
2021/12/10 06:15:44;;;;;;;1.55;1.45;;;22.00;44.60;;;;;;5091496;28;20239;-71
2021/12/10 06:18:11;;;;;;;1.77;1.67;;;22.00;44.60;;;;;;5073817;28;20181;-71
2021/12/10 06:20:47;;;;;;;2.05;1.85;;;22.00;44.60;;;;;;5074050;28;20261;-72
2021/12/10 06:23:15;;;;;;;2.00;1.90;;;22.00;44.60;;;;;;5074285;28;20180;-72
2021/12/10 06:25:42;;;;;;;2.97;1.73;;;22.00;44.60;;;;;;5057805;28;20223;-72
2021/12/10 06:28:08;;;;;;;1.75;1.65;;;22.00;44.60;;;;;;5074124;28;20212;-72
2021/12/10 06:30:44;;;;;;;2.05;1.85;;;22.00;44.60;;;;;;5074145;28;20205;-72
2021/12/10 06:33:17;;;;;;;2.10;1.90;;;22.00;44.60;;;;;;5074552;28;20172;-72
2021/12/10 06:35:47;;;;;;;2.30;2.10;;;22.00;44.40;;;;;;5057572;28;20187;-72
2021/12/10 06:38:13;;;;;;;2.65;2.45;;;22.00;44.40;;;;;;5073659;28;20204;-72
2021/12/10 06:40:43;;;;;;;2.35;2.15;;;22.00;44.40;;;;;;5073934;28;20242;-72
2021/12/10 06:43:11;;;;;;;2.80;2.60;;;22.00;44.40;;;;;;5091497;28;20176;-72
2021/12/10 06:45:38;;;;;;;2.55;2.35;;;22.00;44.50;;;;;;5074003;28;20225;-71
2021/12/10 06:48:07;;;;;;;2.30;2.10;;;22.00;44.40;;;;;;5073880;28;20599;-72
2021/12/10 06:50:40;;;;;;;2.35;2.15;;;22.00;44.40;;;;;;5090642;28;20585;-72
2021/12/10 06:53:06;;;;;;;2.15;1.95;;;22.00;44.40;;;;;;5074032;28;20191;-72
2021/12/10 06:55:34;;;;;;;2.00;1.90;;;22.00;44.40;;;;;;5073878;28;20177;-72
2021/12/10 06:58:00;;;;;;;2.03;1.83;;;22.00;45.00;;;;;;5090637;28;20192;-71
2021/12/10 07:00:45;;;;;;;2.10;1.92;;;22.00;44.40;;;;;;5091888;28;20197;-71
2021/12/10 07:03:17;;;;;;;2.20;2.00;;;22.00;44.40;;;;;;5073871;28;20246;-72
2021/12/10 07:05:44;;;;;;;2.30;2.10;;;22.00;44.40;;;;;;5074047;28;20177;-71
2021/12/10 07:08:11;;;;;;;2.05;1.95;;;22.00;44.40;;;;;;5057227;28;20200;-71
2021/12/10 07:10:37;;;;;;;2.40;2.20;;;22.00;44.30;;;;;;5073668;28;20201;-71
2021/12/10 07:13:06;;;;;;;2.42;2.22;;;22.00;44.30;;;;;;5073917;28;20194;-71
2021/12/10 07:15:39;;;;;;;2.40;2.20;;;22.00;44.30;;;;;;5091910;28;20173;-71
2021/12/10 07:18:05;;;;;;;2.80;2.60;;;22.00;44.20;;;;;;5048425;28;20633;-71
2021/12/10 07:20:32;;;;;;;2.45;2.25;;;22.00;44.30;;;;;;5053758;28;20236;-72
2021/12/10 07:22:58;;;;;;;2.38;2.17;;;22.00;44.20;;;;;;5058890;28;20177;-71
2021/12/10 07:25:24;;;;;;;2.00;1.90;;;22.00;44.30;;;;;;5083134;28;20229;-71
2021/12/10 07:27:51;;;;;;;2.50;2.25;;;22.00;44.10;;;;;;5090459;28;20663;-71
2021/12/10 07:30:23;;;;;;;2.42;2.22;;;21.90;43.80;;;;;;5065594;28;20213;-71
2021/12/10 07:32:49;;;;;;;2.03;1.55;;;21.90;44.00;;;;;;5070205;28;20196;-71
2021/12/10 07:35:16;;;;;;;2.17;1.95;;;21.90;44.10;;;;;;5075048;28;20188;-72
2021/12/10 07:37:43;;;;;;;1.98;1.80;;;22.00;44.20;;;;;;5093753;28;20185;-71
2021/12/10 07:40:17;;;;;;;1.70;1.60;;;22.00;44.10;;;;;;5077027;28;20246;-71
2021/12/10 07:42:43;;;;;;;2.20;2.00;;;22.00;44.20;;;;;;5077008;28;20212;-72
2021/12/10 07:45:11;;;;;;;2.10;2.00;;;22.00;44.10;;;;;;5072202;28;20209;-71
2021/12/10 07:47:38;;;;;;;1.98;1.88;;;22.00;44.10;;;;;;5094715;28;20203;-71
2021/12/10 07:50:14;;;;;;;2.38;2.17;;;22.00;44.10;;;;;;5094266;28;20213;-72
2021/12/10 07:52:41;;;;;;;1.90;1.63;;;21.90;44.00;;;;;;5077119;28;20199;-71
2021/12/10 07:55:12;;;;;;;1.65;1.55;;;22.00;44.00;;;;;;5077013;28;20188;-72
2021/12/10 07:57:39;;;;;;;1.83;1.73;;;22.00;44.00;;;;;;5076519;28;20177;-71
2021/12/10 08:00:11;;;;;;;2.30;1.60;;;22.00;44.00;;;;;;5094663;28;20212;-71
2021/12/10 08:02:40;;;;;;;3.42;1.90;;;22.00;43.90;;;;;;5077009;28;20200;-72
2021/12/10 08:05:08;;;;;;;2.00;1.90;;;22.00;43.90;;;;;;5076537;28;20211;-72
2021/12/10 08:07:33;;;;;;;1.92;1.83;;;22.00;43.70;;;;;;5094481;28;20682;-71
2021/12/10 08:09:59;;;;;;;1.83;1.73;;;22.00;43.90;;;;;;5076578;28;20213;-72
2021/12/10 08:12:25;;;;;;;1.70;1.60;;;22.00;43.70;;;;;;5094636;28;20215;-71
2021/12/10 08:14:52;;;;;;;1.50;1.40;;;21.90;43.80;;;;;;5076815;28;20230;-72
2021/12/10 08:17:20;;;;;;;1.70;1.60;;;21.90;43.80;;;;;;5076437;28;20264;-71
2021/12/10 08:19:48;;;;;;;1.63;1.45;;;21.90;43.80;;;;;;5094381;28;20208;-71
2021/12/10 08:22:14;;;;;;;1.60;1.50;;;21.90;43.80;;;;;;5076111;28;20213;-71
2021/12/10 08:24:41;;;;;;;1.70;1.60;;;22.00;43.90;;;;;;5076354;28;20185;-71
2021/12/10 08:27:08;;;;;;;1.30;1.20;;;21.90;43.80;;;;;;5076565;28;20238;-71
2021/12/10 08:29:34;;;;;;;1.83;1.73;;;22.00;43.80;;;;;;5075815;28;20683;-71
2021/12/10 08:32:02;;;;;;;1.50;1.40;;;22.00;43.80;;;;;;5076054;28;20177;-71
2021/12/10 08:34:28;;;;;;;1.70;1.60;;;22.00;43.90;;;;;;5076047;28;20185;-71
2021/12/10 08:36:55;;;;;;;1.63;1.50;;;21.90;43.80;;;;;;5075946;28;20234;-71
2021/12/10 08:39:22;;;;;;;1.48;1.38;;;22.00;43.80;;;;;;5073857;28;20698;-71
2021/12/10 08:41:47;;;;;;;1.98;1.58;;;22.00;43.80;;;;;;5075952;28;20232;-71
2021/12/10 08:44:14;;;;;;;1.63;1.52;;;22.00;43.70;;;;;;5075026;28;20208;-71
2021/12/10 08:46:44;;;;;;;1.70;1.60;;;21.90;43.60;;;;;;5070379;28;20206;-71
2021/12/10 08:49:10;;;;;;;1.50;1.40;;;22.00;43.70;;;;;;5075436;28;20205;-72
2021/12/10 08:51:42;;;;;;;1.70;1.60;;;22.00;43.30;;;;;;5075740;28;20173;-71
2021/12/10 08:54:10;;;;;;;1.70;1.60;;;22.00;43.50;;;;;;5075927;28;20211;-72
2021/12/10 08:56:38;;;;;;;1.50;1.40;;;22.00;44.10;;;;;;5093614;28;20189;-72
2021/12/10 08:59:07;;;;;;;1.40;1.30;;;21.90;43.50;;;;;;5075547;28;20258;-72
2021/12/10 09:01:41;;;;;;;1.58;1.48;;;21.90;43.40;;;;;;5075628;28;20222;-72
2021/12/10 09:04:10;;;;;;;1.60;1.50;;;22.00;43.60;;;;;;5075657;28;20185;-72
2021/12/10 09:06:41;;;;;;;1.58;1.30;;;22.00;43.60;;;;;;5071076;28;20182;-72
2021/12/10 09:09:10;;;;;;;1.50;1.40;;;22.00;43.60;;;;;;5071405;28;20209;-72
2021/12/10 09:11:38;;;;;;;1.80;1.60;;;22.00;43.60;;;;;;5089706;28;20188;-72
2021/12/10 09:14:07;;;;;;;1.33;1.23;;;22.00;43.60;;;;;;5075126;28;20262;-72
2021/12/10 09:16:33;;;;;;;1.85;1.60;;;22.00;43.60;;;;;;5092377;28;20192;-72
2021/12/10 09:19:02;;;;;;;1.67;1.58;;;22.00;43.60;;;;;;5074837;28;20296;-72
2021/12/10 09:21:30;;;;;;;1.48;1.38;;;22.00;43.60;;;;;;5091833;28;20216;-73
2021/12/10 09:24:01;;;;;;;1.38;1.27;;;22.00;43.50;;;;;;5091833;28;20177;-72
2021/12/10 09:26:27;;;;;;;1.55;1.33;;;22.00;43.50;;;;;;5091851;28;20273;-72
2021/12/10 09:28:57;;;;;;;1.38;1.27;;;22.00;43.20;;;;;;5092847;28;20192;-72
2021/12/10 09:31:24;;;;;;;1.70;1.60;;;22.00;43.50;;;;;;5091973;28;20283;-72
2021/12/10 09:33:57;;;;;;;1.30;1.20;;;22.00;43.20;;;;;;5093266;28;20191;-72
2021/12/10 09:36:25;;;;;;;1.40;1.30;;;21.90;43.10;;;;;;5091583;28;20189;-72
2021/12/10 09:38:52;;;;;;;1.42;1.33;;;22.00;43.20;;;;;;5064032;28;20184;-72
2021/12/10 09:41:19;;;;;;;1.00;1.00;;;22.00;43.40;;;;;;5071331;28;20216;-72
2021/12/10 09:43:45;;;;;;;1.40;1.30;;;22.00;43.30;;;;;;5055027;28;20170;-72
2021/12/10 09:46:13;;;;;;;1.17;1.10;;;22.00;43.20;;;;;;5054564;28;20260;-72
2021/12/10 09:48:42;;;;;;;1.30;1.20;;;22.00;43.40;;;;;;5054512;28;20667;-73
2021/12/10 09:51:20;;;;;;;1.95;1.55;;;22.00;43.40;;;;;;5080151;28;20189;-73
2021/12/10 09:53:50;;;;;;;1.40;1.30;;;22.00;43.40;;;;;;5057945;28;20271;-72
2021/12/10 09:56:20;;;;;;;1.40;1.30;;;22.00;43.30;;;;;;5063818;28;20191;-73
2021/12/10 09:58:46;;;;;;;1.45;1.35;;;22.00;43.30;;;;;;5074250;28;20294;-72
2021/12/10 10:01:22;;;;;;;1.40;1.30;;;22.00;43.20;;;;;;5074456;28;20213;-72
2021/12/10 10:03:59;;;;;;;1.38;1.27;;;22.10;43.30;;;;;;5092546;28;20256;-72
2021/12/10 10:06:25;;;;;;;1.40;1.30;;;22.00;43.20;;;;;;5074438;28;20184;-73
2021/12/10 10:08:52;;;;;;;1.60;1.50;;;22.00;43.20;;;;;;5074496;28;20173;-72
2021/12/10 10:11:25;;;;;;;1.40;1.27;;;22.00;43.20;;;;;;5066186;28;20173;-73
2021/12/10 10:13:53;;;;;;;2.17;1.25;;;22.00;43.20;;;;;;5065956;28;20172;-73
2021/12/10 10:16:21;;;;;;;1.40;1.30;;;22.00;43.20;;;;;;5057856;28;20173;-73
2021/12/10 10:18:49;;;;;;;1.80;1.27;;;22.00;43.30;;;;;;5074037;28;20253;-72
2021/12/10 10:21:23;;;;;;;1.20;1.15;;;22.00;43.40;;;;;;5074272;28;20205;-73
2021/12/10 10:23:50;;;;;;;2.33;1.30;;;22.00;43.20;;;;;;5074368;28;20168;-73
2021/12/10 10:26:31;;;;;;;2.00;1.20;;;22.00;43.20;;;;;;5092482;28;20184;-73
2021/12/10 10:29:04;;;;;;;2.17;1.45;;;22.00;43.20;;;;;;5074180;28;20173;-72
2021/12/10 10:31:33;;;;;;;1.30;1.20;;;22.10;43.30;;;;;;5074287;28;20184;-73
2021/12/10 10:34:01;;;;;;;3.53;1.40;;;22.10;43.30;;;;;;5073813;28;20193;-73
2021/12/10 10:36:32;;;;;;;1.95;1.70;;;22.10;43.90;;;;;;5092265;28;20233;-72
2021/12/10 10:39:15;;;;;;;2.10;1.30;;;22.00;43.20;;;;;;5073911;28;20196;-73
2021/12/10 10:41:47;;;;;;;1.83;1.73;;;22.10;43.30;;;;;;5074620;28;20208;-73
2021/12/10 10:44:17;;;;;;;1.48;1.15;;;22.00;43.20;;;;;;5091400;28;20191;-73
2021/12/10 10:46:45;;;;;;;1.50;1.40;;;22.00;43.20;;;;;;5090893;28;20267;-72
2021/12/10 10:49:54;;;;;;;1.40;1.30;;;22.00;43.20;;;;;;5074017;28;20212;-73
2021/12/10 10:52:34;;;;;;;1.48;1.20;;;22.10;43.30;;;;;;5066478;28;20197;-73
2021/12/10 10:55:34;;;;;;;1.40;1.30;;;22.10;43.30;;;;;;5057354;28;20224;-73
2021/12/10 10:58:13;;;;;;;1.40;1.30;;;22.10;43.30;;;;;;5057401;28;20192;-72
2021/12/10 11:01:13;;;;;;;1.77;1.23;;;22.10;43.30;;;;;;5090783;28;20209;-71
2021/12/10 11:03:51;;;;;;;1.50;1.40;;;22.10;43.30;;;;;;5076118;28;20189;-72
2021/12/10 11:06:30;;;;;;;3.05;1.48;;;22.10;43.30;;;;;;5094719;28;20373;-72
2021/12/10 11:09:14;;;;;;;1.42;1.33;;;22.10;43.30;;;;;;5077440;28;20188;-73
2021/12/10 11:11:58;;;;;;;1.75;1.30;;;22.10;43.30;;;;;;5094618;28;20695;-73
2021/12/10 11:14:32;;;;;;;1.50;1.40;;;22.10;43.30;;;;;;5094586;28;20193;-72
2021/12/10 11:17:14;;;;;;;1.70;1.60;;;22.10;43.30;;;;;;5077944;28;20180;-73
2021/12/10 11:19:47;;;;;;;1.65;1.52;;;22.10;43.30;;;;;;5077728;28;20232;-72
2021/12/10 11:22:16;;;;;;;2.05;1.70;;;22.10;43.30;;;;;;5094490;28;20296;-73
2021/12/10 11:24:57;;;;;;;1.70;1.50;;;22.10;43.30;;;;;;5094557;28;20185;-73
2021/12/10 11:27:35;;;;;;;2.20;1.45;;;22.10;43.30;;;;;;5094364;28;20173;-72
2021/12/10 11:30:01;;;;;;;1.27;1.17;;;22.10;43.30;;;;;;5077615;28;20250;-73
2021/12/10 11:32:34;;;;;;;2.42;1.50;;;22.10;43.30;;;;;;5094487;28;20192;-74
2021/12/10 11:35:08;;;;;;;1.60;1.35;;;22.10;43.30;;;;;;5077410;28;20189;-72
2021/12/10 11:37:48;;;;;;;2.30;1.50;;;22.10;43.30;;;;;;5094051;28;20187;-71
2021/12/10 11:40:50;;;;;;;1.70;1.60;;;22.10;43.30;;;;;;5094342;28;20201;-73
2021/12/10 11:44:21;;;;;;;1.70;1.60;;;22.10;43.30;;;;;;5077305;28;20203;-72
2021/12/10 11:47:14;;;;;;;1.42;1.33;;;22.10;43.30;;;;;;5082107;28;20258;-72
2021/12/10 11:49:42;;;;;;;1.83;1.35;;;22.10;43.30;;;;;;5130438;22;20251;-66
2021/12/10 11:52:25;;;;;;;2.13;1.35;;;22.00;43.20;;;;;;5056526;28;20190;-70
2021/12/10 11:55:05;;;;;;;1.40;1.30;;;22.10;43.30;;;;;;5073771;28;20181;-68
2021/12/10 11:57:37;;;;;;;1.20;1.10;;;22.10;43.30;;;;;;5073285;28;20197;-68
2021/12/10 12:00:26;;;;;;;1.20;1.10;;;22.00;43.20;;;;;;5045221;28;20209;-69
2021/12/10 12:02:58;;;;;;;1.50;1.40;;;22.00;43.20;;;;;;5093582;28;20291;-69
2021/12/10 12:05:45;;;;;;;2.53;1.60;;;22.10;43.30;;;;;;5094731;28;20197;-69
2021/12/10 12:08:16;;;;;;;1.85;1.63;;;22.10;43.30;;;;;;5094448;28;20181;-69
2021/12/10 12:10:55;;;;;;;1.50;1.38;;;22.10;43.30;;;;;;5059724;28;20224;-69
2021/12/10 12:13:36;;;;;;;1.38;1.27;;;22.10;43.30;;;;;;5093372;28;20218;-69
2021/12/10 12:16:13;;;;;;;1.70;1.40;;;22.10;43.40;;;;;;5059126;28;20200;-68
2021/12/10 12:19:03;;;;;;;1.40;1.30;;;22.00;43.30;;;;;;5076116;28;20180;-70
2021/12/10 12:27:05;;;;;;;1.65;1.38;;;22.10;43.40;;;;;;5076286;28;20188;-68
2021/12/10 12:29:42;;;;;;;1.45;1.35;;;22.00;43.20;;;;;;5059058;28;20626;-69
2021/12/10 12:32:20;;;;;;;2.55;1.20;;;22.10;43.50;;;;;;5076041;28;20184;-68
2021/12/10 12:34:47;;;;;;;2.45;1.40;;;22.10;43.50;;;;;;5076353;28;20246;-69
2021/12/10 12:37:18;;;;;;;1.48;1.38;;;22.10;43.40;;;;;;5074581;28;20199;-68
2021/12/10 12:39:59;;;;;;;1.77;1.40;;;22.10;44.00;;;;;;5055499;28;20251;-68
2021/12/10 12:42:37;;;;;;;1.60;1.50;;;22.10;43.60;;;;;;5072417;28;20197;-68
2021/12/10 12:45:16;;;;;;;2.28;2.08;;;22.10;43.40;;;;;;5089544;28;20312;-69
2021/12/10 12:47:52;;;;;;;2.50;2.30;;;22.10;43.50;;;;;;5088971;28;20170;-68
2021/12/10 12:50:31;;;;;;;2.03;1.83;;;22.10;43.30;;;;;;5072292;28;20208;-68
2021/12/10 12:53:30;;;;;;;2.03;1.83;;;22.10;43.50;;;;;;5055957;28;20173;-68
2021/12/10 12:56:03;;;;;;;1.83;1.73;;;22.10;43.60;;;;;;5055766;28;20555;-68
2021/12/10 12:58:46;;;;;;;2.63;1.90;;;22.10;43.50;;;;;;5084750;28;20640;-68
2021/12/10 13:01:21;;;;;;;2.03;1.83;;;22.10;43.50;;;;;;5075475;28;20212;-68
2021/12/10 13:03:49;;;;;;;1.80;1.70;;;22.00;43.30;;;;;;5059411;28;20195;-68
2021/12/10 13:06:50;;;;;;;2.50;2.30;;;22.10;43.50;;;;;;5093984;28;20205;-69
2021/12/10 13:09:38;;;;;;;1.90;1.77;;;22.10;43.50;;;;;;5075109;28;20252;-68
2021/12/10 13:12:19;;;;;;;1.85;1.75;;;22.10;43.60;;;;;;5075208;28;20189;-68
2021/12/10 13:14:58;;;;;;;1.83;1.73;;;22.00;43.50;;;;;;5058441;28;20200;-69
2021/12/10 13:17:37;;;;;;;2.58;1.80;;;22.10;43.60;;;;;;5055453;28;20238;-69
2021/12/10 13:20:14;;;;;;;2.00;1.90;;;22.10;43.60;;;;;;5075297;28;20211;-69
2021/12/10 13:22:42;;;;;;;2.15;1.95;;;22.10;43.50;;;;;;5074987;28;20665;-68
2021/12/10 13:25:20;;;;;;;1.73;1.63;;;22.10;43.40;;;;;;5058621;28;20250;-68